Terminal Aerodrome Forecast
Issued by NWS

Home | Current Version | Previous Version | Text Only | Print | Product List | Glossary On
Versions: 1 2 3 4 5 6 7 8 9 10 11 12 13 14 15 16 17 18
000
FTAK31 PAJN 281100
TAFAKT
TAF
PAKT 281128Z 2812/2912 14008KT P6SM -SHRA SCT015 OVC025
     FM281800 14011KT 6SM -SHRA BR BKN015 OVC025
     FM290000 14008KT P6SM -SHRA SCT015 OVC030
     FM290600 14006KT P6SM VCSH BKN025 OVC050
     FM290900 14006KT P6SM VCSH OVC050
      AMD LTD TO CLD VIS AND WIND 2812/2815=

USA.gov is the U.S. government's official web portal to all federal, state and local government web resources and services.